MST,Max TemperatureF,Mean TemperatureF,Min TemperatureF,Max Dew PointF,MeanDew PointF,Min DewpointF,Max Humidity, Mean Humidity, Min Humidity, Max Sea Level PressureIn, Mean Sea Level PressureIn, Min Sea Level PressureIn, Max VisibilityMiles, Mean VisibilityMiles, Min VisibilityMiles, Max Wind SpeedMPH, Mean Wind SpeedMPH, Max Gust SpeedMPH,PrecipitationIn, CloudCover, Events, WindDirDegrees
2012-11-1,62,44,26,23,18,5,75,43,10,30.13,30.03,29.90,10,10,10,13,4,16,0.00,0,,201
2012-11-2,55,41,26,19,16,13,58,39,20,30.11,30.01,29.92,10,10,10,12,5,14,0.00,1,,185
2012-11-3,55,39,22,19,17,15,74,47,20,30.25,30.14,30.07,10,10,10,15,7,21,0.00,0,,230
2012-11-4,54,39,23,21,19,16,75,51,26,30.36,30.27,30.17,10,10,10,16,7,21,0.00,0,,224
2012-11-5,56,40,24,27,24,20,81,57,32,30.42,30.30,30.20,10,10,10,14,6,22,0.00,0,,187
2012-11-6,60,44,27,25,20,10,78,46,14,30.35,30.25,30.16,10,10,10,13,6,17,0.00,0,,212
2012-11-7,63,43,23,20,17,13,68,41,14,30.24,30.07,29.92,10,10,10,13,6,17,0.00,0,,230
2012-11-8,62,45,27,20,14,0,63,36,8,30.02,29.82,29.65,10,10,10,23,7,30,0.00,1,,190
2012-11-9,56,47,38,34,27,17,85,56,26,29.91,29.60,29.38,10,10,7,26,10,36,0.02,6,Rain,170
2012-11-10,44,31,18,31,23,10,100,70,39,29.74,29.56,29.29,10,4,0,23,8,33,0.16,8,Fog-Snow,354
2012-11-11,19,15,10,16,11,7,92,80,67,30.43,29.97,29.76,10,4,0,20,6,26,0.01,7,Snow,356
2012-11-12,31,16,1,16,6,-4,83,63,42,30.65,30.52,30.35,10,10,10,10,5,15,0.00,1,,240
2012-11-13,39,27,14,19,15,11,88,64,40,30.45,30.36,30.27,10,10,10,8,4,10,0.00,3,,227
2012-11-14,42,28,13,20,16,10,88,62,36,30.42,30.29,30.20,10,10,10,10,4,13,0.00,1,,198
2012-11-15,47,33,18,19,16,12,74,51,28,30.38,30.29,30.20,10,10,10,10,4,12,0.00,0,,206
2012-11-16,47,33,18,26,18,11,80,57,33,30.32,30.20,30.09,10,10,10,9,4,13,0.00,4,,232
2012-11-17,53,40,26,28,24,22,85,58,30,30.19,30.07,29.96,10,10,10,13,4,21,0.00,3,,224
2012-11-18,46,36,25,33,27,21,100,75,49,30.17,30.08,29.95,10,7,1,10,3,13,0.04,6,Snow,190
2012-11-19,49,36,23,25,21,18,75,55,34,30.32,30.24,30.14,10,10,10,10,5,13,0.00,0,,203
2012-11-20,54,37,20,18,17,14,81,52,22,30.39,30.26,30.13,10,10,10,10,5,13,0.00,0,,213
2012-11-21,58,39,20,16,13,3,74,43,11,30.21,30.08,29.96,10,10,10,12,5,15,0.00,0,,180
2012-11-22,50,36,21,20,16,11,74,52,29,30.38,30.20,29.97,10,10,10,14,7,17,0.00,0,,211
2012-11-23,50,35,19,18,15,11,84,52,20,30.51,30.42,30.34,10,10,10,10,5,15,0.00,0,,223
2012-11-24,53,35,16,16,12,8,74,47,19,30.42,30.23,30.06,10,10,10,13,5,15,0.00,0,,206
2012-11-25,52,35,17,15,11,8,73,45,17,30.11,29.98,29.83,10,10,10,21,6,29,0.00,0,,217
2012-11-26,47,33,18,14,11,5,68,43,17,30.32,30.16,29.95,10,10,10,12,6,16,0.00,0,,209
2012-11-27,47,30,12,9,4,-5,67,41,14,30.43,30.33,30.22,10,10,10,12,6,15,0.00,0,,206
2012-11-28,49,31,13,11,7,3,61,39,17,30.44,30.29,30.15,10,10,10,9,5,12,0.00,0,,200
2012-11-29,51,36,21,22,17,11,74,52,29,30.18,30.11,30.02,10,10,10,13,6,16,0.00,1,,192
2012-11-30,53,37,20,21,18,15,84,54,24,30.19,30.04,29.92,10,10,10,12,4,15,0.00,1,,192